createdAt,value
2018-12-19T00:00:35.275Z,100627.88
2018-12-19T00:03:06.443Z,100623.67
2018-12-19T00:05:39.743Z,100614.73
2018-12-19T00:08:11.171Z,100607.84
2018-12-19T00:10:42.138Z,100602.75
2018-12-19T00:13:15.360Z,100592.47
2018-12-19T00:15:46.961Z,100594.65
2018-12-19T00:18:18.108Z,100594.80
2018-12-19T00:20:51.607Z,100597.48
2018-12-19T00:23:22.953Z,100606.22
2018-12-19T00:25:54.022Z,100598.30
2018-12-19T00:30:56.639Z,100611.39
2018-12-19T00:33:30.426Z,100603.31
2018-12-19T00:36:02.115Z,100604.84
2018-12-19T00:38:33.751Z,100604.66
2018-12-19T00:41:07.263Z,100601.77
2018-12-19T00:43:41.307Z,100595.19
2018-12-19T00:46:12.791Z,100593.52
2018-12-19T00:48:43.651Z,100591.97
2018-12-19T00:51:14.875Z,100576.97
2018-12-19T00:53:48.635Z,100571.25
2018-12-19T00:56:20.265Z,100564.02
2018-12-19T00:58:51.107Z,100567.21
2018-12-19T01:01:22.628Z,100562.98
2018-12-19T01:03:53.618Z,100570.55
2018-12-19T01:06:24.721Z,100557.41
2018-12-19T01:08:55.591Z,100559.20
2018-12-19T01:11:26.554Z,100555.67
2018-12-19T01:14:00.103Z,100558.82
2018-12-19T01:16:34.801Z,100558.13
2018-12-19T01:19:04.443Z,100566.39
2018-12-19T01:21:35.699Z,100576.42
2018-12-19T01:24:07.239Z,100568.69
2018-12-19T01:26:38.247Z,100561.20
2018-12-19T01:29:09.483Z,100554.98
2018-12-19T01:31:40.535Z,100573.14
2018-12-19T01:34:11.637Z,100583.09
2018-12-19T01:36:42.807Z,100571.77
2018-12-19T01:39:13.891Z,100573.94
2018-12-19T01:41:44.751Z,100573.26
2018-12-19T01:44:15.531Z,100591.11
2018-12-19T01:46:46.635Z,100585.19
2018-12-19T01:49:17.613Z,100592.07
2018-12-19T01:51:48.977Z,100588.70
2018-12-19T01:54:20.123Z,100575.28
2018-12-19T01:56:51.087Z,100568.39
2018-12-19T01:59:22.031Z,100561.75
2018-12-19T02:01:55.607Z,100573.73
2018-12-19T02:04:25.080Z,100561.59
2018-12-19T02:06:55.892Z,100556.17
2018-12-19T02:09:29.016Z,100551.93
2018-12-19T02:12:00.072Z,100546.32
2018-12-19T02:14:31.011Z,100545.51
2018-12-19T02:17:13.178Z,100544.08
2018-12-19T02:19:46.780Z,100546.00
2018-12-19T02:22:20.567Z,100552.88
2018-12-19T02:24:54.144Z,100547.59
2018-12-19T02:27:25.027Z,100533.71
2018-12-19T02:29:58.515Z,100528.67
2018-12-19T02:35:00.887Z,100551.20
2018-12-19T02:37:32.264Z,100543.61
2018-12-19T02:40:05.970Z,100547.31
2018-12-19T02:42:39.951Z,100541.69
2018-12-19T02:45:11.549Z,100541.37
2018-12-19T02:47:42.368Z,100544.72
2018-12-19T02:50:13.331Z,100527.68
2018-12-19T02:52:44.127Z,100525.69
2018-12-19T02:55:15.583Z,100531.19
2018-12-19T02:57:46.559Z,100517.23
2018-12-19T03:00:17.641Z,100537.06
2018-12-19T03:02:48.675Z,100528.80
2018-12-19T03:05:19.736Z,100530.86
2018-12-19T03:07:50.931Z,100543.81
2018-12-19T03:10:22.656Z,100536.04
2018-12-19T03:12:53.570Z,100530.12
2018-12-19T03:15:24.684Z,100529.61
2018-12-19T03:17:55.607Z,100525.37
2018-12-19T03:20:26.552Z,100508.98
2018-12-19T03:22:57.644Z,100506.98
2018-12-19T03:25:28.735Z,100515.95
2018-12-19T03:28:02.422Z,100515.80
2018-12-19T03:30:34.001Z,100521.83
2018-12-19T03:33:05.019Z,100514.77
2018-12-19T03:35:36.063Z,100522.67
2018-12-19T03:38:06.972Z,100521.09
2018-12-19T03:40:38.727Z,100522.31
2018-12-19T03:43:09.719Z,100530.77
2018-12-19T03:45:43.237Z,100527.74
2018-12-19T03:49:19.231Z,100528.87
2018-12-19T03:51:50.360Z,100516.71
2018-12-19T03:54:21.666Z,100519.09
2018-12-19T03:56:52.951Z,100520.64
2018-12-19T03:59:23.623Z,100526.94
2018-12-19T04:01:55.069Z,100526.78
2018-12-19T04:04:25.882Z,100523.89
2018-12-19T04:06:56.719Z,100520.86
2018-12-19T04:09:27.671Z,100526.46
2018-12-19T04:11:58.724Z,100511.45
2018-12-19T04:14:29.556Z,100507.27
2018-12-19T04:17:03.139Z,100512.60
2018-12-19T04:19:37.270Z,100506.38
2018-12-19T04:22:08.544Z,100499.58
2018-12-19T04:24:39.517Z,100500.97
2018-12-19T04:27:10.525Z,100491.80
2018-12-19T04:29:41.826Z,100513.21
2018-12-19T04:32:13.773Z,100510.99
2018-12-19T04:34:45.191Z,100510.00
2018-12-19T04:42:19.547Z,100499.99
2018-12-19T04:44:52.999Z,100500.63
2018-12-19T04:47:24.720Z,100499.28
2018-12-19T04:49:55.641Z,100500.47
2018-12-19T04:52:29.647Z,100493.56
2018-12-19T04:55:01.230Z,100490.02
2018-12-19T04:57:32.047Z,100487.33
2018-12-19T05:00:04.206Z,100489.31
2018-12-19T05:02:37.894Z,100483.78
2018-12-19T05:05:09.527Z,100487.92
2018-12-19T05:07:40.976Z,100495.83
2018-12-19T05:10:14.589Z,100488.16
2018-12-19T05:12:45.734Z,100495.00
2018-12-19T05:15:16.690Z,100484.75
2018-12-19T05:17:47.729Z,100483.32
2018-12-19T05:20:18.611Z,100484.16
2018-12-19T05:22:49.810Z,100493.13
2018-12-19T05:25:20.854Z,100497.34
2018-12-19T05:27:51.788Z,100496.31
2018-12-19T05:30:25.525Z,100501.71
2018-12-19T05:32:56.879Z,100501.92
2018-12-19T05:35:27.927Z,100501.36
2018-12-19T05:37:58.908Z,100499.17
2018-12-19T05:40:29.931Z,100499.86
2018-12-19T05:43:00.830Z,100514.72
2018-12-19T05:45:34.455Z,100514.91
2018-12-19T05:48:05.818Z,100514.79
2018-12-19T05:50:37.451Z,100515.15
2018-12-19T05:53:08.639Z,100515.82
2018-12-19T05:55:42.449Z,100503.26
2018-12-19T05:58:14.414Z,100503.38
2018-12-19T06:00:45.310Z,100502.35
2018-12-19T06:03:16.247Z,100498.73
2018-12-19T06:05:47.095Z,100486.89
2018-12-19T06:08:17.865Z,100494.04
2018-12-19T06:10:51.774Z,100494.16
2018-12-19T06:13:23.022Z,100490.71
2018-12-19T06:15:56.735Z,100498.86
2018-12-19T06:18:27.979Z,100500.45
2018-12-19T06:20:58.921Z,100503.99
2018-12-19T06:23:32.784Z,100498.78
2018-12-19T06:26:06.517Z,100502.44
2018-12-19T06:28:37.801Z,100498.34
2018-12-19T06:31:09.117Z,100502.48
2018-12-19T06:33:41.563Z,100490.56
2018-12-19T06:36:12.926Z,100498.50
2018-12-19T06:38:43.741Z,100498.94
2018-12-19T06:41:14.939Z,100499.58
2018-12-19T06:43:45.900Z,100496.16
2018-12-19T06:46:17.622Z,100498.34
2018-12-19T06:48:48.451Z,100489.80
2018-12-19T06:51:19.519Z,100488.33
2018-12-19T06:53:50.588Z,100495.95
2018-12-19T06:56:24.312Z,100491.70
2018-12-19T06:58:55.808Z,100483.52
2018-12-19T07:01:30.105Z,100471.84
2018-12-19T07:04:01.135Z,100468.50
2018-12-19T07:06:31.899Z,100461.74
2018-12-19T07:09:06.602Z,100462.41
2018-12-19T07:11:37.848Z,100477.47
2018-12-19T07:14:11.243Z,100478.89
2018-12-19T07:16:45.525Z,100494.27
2018-12-19T07:19:16.615Z,100509.66
2018-12-19T07:21:47.454Z,100503.47
2018-12-19T07:24:18.414Z,100506.44
2018-12-19T07:26:49.266Z,100504.69
2018-12-19T07:29:20.280Z,100500.84
2018-12-19T07:31:51.395Z,100509.93
2018-12-19T07:34:22.519Z,100512.75
2018-12-19T07:36:53.556Z,100513.02
2018-12-19T07:39:24.357Z,100514.17
2018-12-19T07:41:57.911Z,100507.66
2018-12-19T07:44:29.403Z,100517.72
2018-12-19T07:47:03.091Z,100516.36
2018-12-19T07:49:36.991Z,100521.05
2018-12-19T07:52:08.520Z,100518.30
2018-12-19T07:54:40.364Z,100526.02
2018-12-19T07:57:11.353Z,100520.61
2018-12-19T07:59:42.635Z,100520.44
2018-12-19T08:02:13.563Z,100515.41
2018-12-19T08:04:47.654Z,100515.92
2018-12-19T08:07:18.893Z,100521.78
2018-12-19T08:09:49.519Z,100514.82
2018-12-19T08:12:20.751Z,100504.59
2018-12-19T08:14:56.507Z,100509.02
2018-12-19T08:17:28.228Z,100516.41
2018-12-19T08:19:59.388Z,100517.20
2018-12-19T08:22:30.542Z,100513.02
2018-12-19T08:25:01.891Z,100519.83
2018-12-19T08:27:33.199Z,100524.23
2018-12-19T08:30:06.799Z,100523.46
2018-12-19T08:32:38.383Z,100513.23
2018-12-19T08:35:09.643Z,100518.03
2018-12-19T08:37:40.558Z,100530.92
2018-12-19T08:40:11.715Z,100543.69
2018-12-19T08:45:44.918Z,100542.77
2018-12-19T08:48:18.952Z,100551.41
2018-12-19T08:50:50.300Z,100553.55
2018-12-19T08:53:21.679Z,100548.56
2018-12-19T08:55:53.439Z,100542.45
2018-12-19T08:58:24.383Z,100559.80
2018-12-19T09:00:55.156Z,100560.50
2018-12-19T09:03:26.183Z,100553.02
2018-12-19T09:05:59.615Z,100551.33
2018-12-19T09:08:33.558Z,100555.08
2018-12-19T09:11:05.829Z,100548.48
2018-12-19T09:13:37.835Z,100546.90
2018-12-19T09:16:08.895Z,100549.41
2018-12-19T09:18:39.929Z,100546.90
2018-12-19T09:21:10.871Z,100554.88
2018-12-19T09:23:42.126Z,100550.88
2018-12-19T09:26:13.467Z,100548.94
2018-12-19T09:28:46.803Z,100552.66
2018-12-19T09:31:20.825Z,100557.95
2018-12-19T09:33:52.623Z,100570.71
2018-12-19T09:36:24.579Z,100560.34
2018-12-19T09:38:55.592Z,100562.53
2018-12-19T09:41:26.269Z,100561.81
2018-12-19T09:43:57.331Z,100558.84
2018-12-19T09:46:28.655Z,100564.72
2018-12-19T09:48:59.535Z,100565.46
2018-12-19T09:51:30.791Z,100559.47
2018-12-19T09:54:02.860Z,100565.66
2018-12-19T09:56:35.033Z,100564.72
2018-12-19T09:59:06.811Z,100559.94
2018-12-19T10:01:37.663Z,100568.38
2018-12-19T10:04:08.671Z,100569.00
2018-12-19T10:06:39.724Z,100563.95
2018-12-19T10:09:14.807Z,100552.22
2018-12-19T10:11:43.748Z,100560.60
2018-12-19T10:14:15.071Z,100564.30
2018-12-19T10:16:46.367Z,100564.55
2018-12-19T10:19:19.805Z,100560.55
2018-12-19T10:21:51.259Z,100549.81
2018-12-19T10:24:27.223Z,100556.38
2018-12-19T10:26:58.771Z,100543.31
2018-12-19T10:29:29.967Z,100534.39
2018-12-19T10:32:00.895Z,100535.99
2018-12-19T10:34:31.895Z,100531.83
2018-12-19T10:37:01.372Z,100535.83
2018-12-19T10:39:32.287Z,100529.68
2018-12-19T10:42:02.215Z,100534.06
2018-12-19T10:47:15.061Z,100529.41
2018-12-19T10:49:48.804Z,100539.13
2018-12-19T10:52:20.203Z,100537.57
2018-12-19T10:54:53.530Z,100544.14
2018-12-19T10:57:27.540Z,100529.02
2018-12-19T11:03:02.055Z,100518.00
2018-12-19T11:05:32.934Z,100526.30
2018-12-19T11:08:04.031Z,100521.92
2018-12-19T11:10:35.347Z,100516.16
2018-12-19T11:13:06.171Z,100522.64
2018-12-19T11:15:39.862Z,100513.89
2018-12-19T11:18:11.315Z,100518.72
2018-12-19T11:20:44.916Z,100516.73
2018-12-19T11:23:14.137Z,100517.09
2018-12-19T11:25:47.671Z,100519.83
2018-12-19T11:28:19.179Z,100516.08
2018-12-19T11:30:50.073Z,100507.30
2018-12-19T11:33:20.961Z,100512.64
2018-12-19T11:35:50.280Z,100510.23
2018-12-19T11:38:22.063Z,100502.20
2018-12-19T11:40:53.025Z,100503.27
2018-12-19T11:43:24.019Z,100509.96
2018-12-19T11:45:55.067Z,100501.52
2018-12-19T11:48:28.630Z,100493.47
2018-12-19T11:51:00.314Z,100492.73
2018-12-19T11:53:31.323Z,100485.01
2018-12-19T11:56:02.467Z,100485.55
2018-12-19T11:58:33.563Z,100474.92
2018-12-19T12:01:04.718Z,100476.38
2018-12-19T12:03:36.305Z,100482.23
2018-12-19T12:06:07.380Z,100488.08
2018-12-19T12:08:38.555Z,100488.38
2018-12-19T12:11:09.289Z,100476.20
2018-12-19T12:13:40.272Z,100473.48
2018-12-19T12:16:11.299Z,100474.02
2018-12-19T12:18:42.399Z,100478.17
2018-12-19T12:21:13.483Z,100476.11
2018-12-19T12:23:47.411Z,100463.89
2018-12-19T12:26:20.927Z,100462.84
2018-12-19T12:28:52.245Z,100452.59
2018-12-19T12:31:23.161Z,100453.42
2018-12-19T12:33:54.677Z,100449.36
2018-12-19T12:36:26.083Z,100454.38
2018-12-19T12:38:56.868Z,100453.73
2018-12-19T12:41:28.939Z,100445.92
2018-12-19T12:44:02.476Z,100439.22
2018-12-19T12:46:34.019Z,100443.52
2018-12-19T12:49:04.806Z,100438.47
2018-12-19T12:51:38.365Z,100435.67
2018-12-19T12:54:09.275Z,100439.53
2018-12-19T12:56:40.082Z,100441.31
2018-12-19T12:59:13.571Z,100437.34
2018-12-19T13:01:43.502Z,100433.16
2018-12-19T13:04:14.977Z,100428.03
2018-12-19T13:06:45.858Z,100435.12
2018-12-19T13:09:16.715Z,100422.91
2018-12-19T13:11:47.762Z,100422.89
2018-12-19T13:14:18.844Z,100413.80
2018-12-19T13:16:49.613Z,100416.13
2018-12-19T13:19:20.923Z,100401.09
2018-12-19T13:21:52.459Z,100404.19
2018-12-19T13:24:26.001Z,100409.70
2018-12-19T13:26:57.475Z,100405.53
2018-12-19T13:29:29.263Z,100406.42
2018-12-19T13:32:00.571Z,100402.55
2018-12-19T13:34:32.200Z,100393.50
2018-12-19T13:37:05.891Z,100384.80
2018-12-19T13:39:37.880Z,100384.80
2018-12-19T13:42:11.611Z,100398.56
2018-12-19T13:44:43.212Z,100396.39
2018-12-19T13:47:14.355Z,100397.31
2018-12-19T13:49:45.098Z,100401.97
2018-12-19T13:52:15.971Z,100407.71
2018-12-19T13:54:46.863Z,100401.56
2018-12-19T13:57:18.091Z,100400.80
2018-12-19T13:59:49.211Z,100395.59
2018-12-19T14:02:20.300Z,100415.73
2018-12-19T14:04:52.246Z,100412.59
2018-12-19T14:07:23.495Z,100415.42
2018-12-19T14:09:54.608Z,100401.64
2018-12-19T14:12:28.243Z,100396.62
2018-12-19T14:14:59.555Z,100393.90
2018-12-19T14:17:30.639Z,100395.14
2018-12-19T14:20:04.713Z,100395.42
2018-12-19T14:22:35.728Z,100391.38
2018-12-19T14:25:06.789Z,100388.23
2018-12-19T14:27:38.423Z,100384.77
2018-12-19T14:30:09.873Z,100381.63
2018-12-19T14:32:41.479Z,100372.53
2018-12-19T14:35:12.652Z,100365.66
2018-12-19T14:37:43.853Z,100364.38
2018-12-19T14:40:15.016Z,100362.83
2018-12-19T14:42:46.003Z,100363.61
2018-12-19T14:45:19.700Z,100373.05
2018-12-19T14:47:51.468Z,100365.89
2018-12-19T14:50:23.274Z,100358.70
2018-12-19T14:52:54.073Z,100359.14
2018-12-19T14:55:25.214Z,100356.66
2018-12-19T14:57:55.984Z,100357.16
2018-12-19T15:00:27.707Z,100368.41
2018-12-19T15:02:59.204Z,100366.97
2018-12-19T15:05:30.506Z,100375.73
2018-12-19T15:08:02.229Z,100384.32
2018-12-19T15:10:33.447Z,100399.56
2018-12-19T15:13:05.165Z,100412.32
2018-12-19T15:15:36.360Z,100408.77
2018-12-19T15:18:08.167Z,100399.18
2018-12-19T15:20:39.823Z,100393.09
2018-12-19T15:23:10.752Z,100396.36
2018-12-19T15:25:41.654Z,100393.13
2018-12-19T15:28:17.313Z,100384.89
2018-12-19T15:30:48.678Z,100379.38
2018-12-19T15:33:19.861Z,100385.30
2018-12-19T15:35:51.779Z,100390.05
2018-12-19T15:38:22.825Z,100391.30
2018-12-19T15:40:53.653Z,100387.35
2018-12-19T15:43:24.567Z,100389.94
2018-12-19T15:45:55.823Z,100396.64
2018-12-19T15:48:26.631Z,100386.00
2018-12-19T15:50:57.526Z,100397.75
2018-12-19T15:53:31.067Z,100389.42
2018-12-19T15:56:02.573Z,100393.50
2018-12-19T15:58:33.639Z,100393.63
2018-12-19T16:01:04.789Z,100396.12
2018-12-19T16:03:35.720Z,100399.34
2018-12-19T16:06:06.766Z,100398.95
2018-12-19T16:08:37.707Z,100391.30
2018-12-19T16:11:09.315Z,100388.59
2018-12-19T16:13:40.316Z,100395.06
2018-12-19T16:16:12.104Z,100396.55
2018-12-19T16:18:43.172Z,100403.34
2018-12-19T16:21:14.466Z,100401.83
2018-12-19T16:23:46.136Z,100406.45
2018-12-19T16:26:17.983Z,100411.05
2018-12-19T16:28:51.642Z,100410.95
2018-12-19T16:31:25.689Z,100406.73
2018-12-19T16:33:57.079Z,100413.73
2018-12-19T16:36:28.183Z,100406.95
2018-12-19T16:38:59.885Z,100419.17
2018-12-19T16:41:31.015Z,100418.55
2018-12-19T16:44:02.334Z,100417.50
2018-12-19T16:46:33.355Z,100418.45
2018-12-19T16:49:06.815Z,100418.77
2018-12-19T16:51:38.523Z,100430.05
2018-12-19T16:54:10.223Z,100422.53
2018-12-19T16:56:41.043Z,100414.56
2018-12-19T16:59:11.957Z,100415.41
2018-12-19T17:01:42.818Z,100408.00
2018-12-19T17:04:13.866Z,100404.89
2018-12-19T17:06:45.123Z,100402.36
2018-12-19T17:09:16.146Z,100403.19
2018-12-19T17:11:46.921Z,100397.16
2018-12-19T17:14:17.927Z,100402.05
2018-12-19T17:16:48.920Z,100401.86
2018-12-19T17:19:20.004Z,100395.27
2018-12-19T17:21:51.188Z,100392.36
2018-12-19T17:24:27.475Z,100396.31
2018-12-19T17:26:59.223Z,100389.83
2018-12-19T17:29:30.263Z,100391.41
2018-12-19T17:32:01.995Z,100385.05
2018-12-19T17:34:33.397Z,100395.04
2018-12-19T17:37:04.407Z,100400.25
2018-12-19T17:39:35.490Z,100390.62
2018-12-19T17:42:06.579Z,100394.56
2018-12-19T17:44:37.822Z,100393.20
2018-12-19T17:47:08.643Z,100390.30
2018-12-19T17:49:41.968Z,100388.33
2018-12-19T17:52:13.509Z,100388.55
2018-12-19T17:54:42.563Z,100381.81
2018-12-19T17:57:13.520Z,100379.02
2018-12-19T17:59:44.512Z,100385.80
2018-12-19T18:02:15.669Z,100387.42
2018-12-19T18:04:46.987Z,100377.40
2018-12-19T18:07:18.115Z,100381.12
2018-12-19T18:09:48.915Z,100385.06
2018-12-19T18:12:19.943Z,100385.66
2018-12-19T18:14:51.146Z,100382.84
2018-12-19T18:17:22.267Z,100384.41
2018-12-19T18:19:53.195Z,100380.66
2018-12-19T18:22:24.291Z,100389.02
2018-12-19T18:24:56.034Z,100389.53
2018-12-19T18:27:26.971Z,100383.31
2018-12-19T18:29:58.177Z,100376.44
2018-12-19T18:32:29.973Z,100379.27
2018-12-19T18:35:01.782Z,100373.95
2018-12-19T18:37:33.506Z,100370.36
2018-12-19T18:40:05.249Z,100358.98
2018-12-19T18:42:37.002Z,100354.62
2018-12-19T18:45:12.037Z,100351.69
2018-12-19T18:47:42.951Z,100346.26
2018-12-19T18:50:16.436Z,100339.58
2018-12-19T18:52:47.276Z,100343.25
2018-12-19T18:55:21.399Z,100340.10
2018-12-19T18:57:53.181Z,100339.41
2018-12-19T19:00:33.247Z,100346.06
2018-12-19T19:03:02.747Z,100336.88
2018-12-19T19:05:33.773Z,100331.45
2018-12-19T19:08:07.190Z,100326.26
2018-12-19T19:10:38.871Z,100319.09
2018-12-19T19:13:10.566Z,100330.56
2018-12-19T19:15:43.903Z,100335.67
2018-12-19T19:18:15.267Z,100338.69
2018-12-19T19:20:46.483Z,100338.37
2018-12-19T19:23:20.615Z,100337.64
2018-12-19T19:25:51.510Z,100343.17
2018-12-19T19:28:23.320Z,100337.11
2018-12-19T19:30:55.106Z,100337.41
2018-12-19T19:33:26.887Z,100343.37
2018-12-19T19:35:59.005Z,100343.59
2018-12-19T19:38:30.934Z,100349.02
2018-12-19T19:41:00.603Z,100340.06
2018-12-19T19:43:35.363Z,100339.42
2018-12-19T19:46:06.573Z,100340.31
2018-12-19T19:48:37.807Z,100333.55
2018-12-19T19:51:09.395Z,100342.13
2018-12-19T19:53:40.715Z,100336.02
2018-12-19T19:56:11.791Z,100336.87
2018-12-19T19:58:42.918Z,100338.37
2018-12-19T20:01:14.356Z,100339.84
2018-12-19T20:03:45.962Z,100343.94
2018-12-19T20:06:16.079Z,100349.30
2018-12-19T20:08:50.117Z,100348.52
2018-12-19T20:11:22.363Z,100359.66
2018-12-19T20:13:56.021Z,100361.06
2018-12-19T20:16:29.823Z,100358.97
2018-12-19T20:19:01.407Z,100365.45
2018-12-19T20:21:32.363Z,100367.94
2018-12-19T20:24:03.594Z,100358.56
2018-12-19T20:26:34.847Z,100369.02
2018-12-19T20:29:06.587Z,100367.14
2018-12-19T20:31:37.676Z,100359.44
2018-12-19T20:34:11.211Z,100360.54
2018-12-19T20:36:42.656Z,100356.47
2018-12-19T20:39:13.727Z,100353.57
2018-12-19T20:41:44.651Z,100348.98
2018-12-19T20:44:15.663Z,100344.52
2018-12-19T20:46:46.635Z,100342.00
2018-12-19T20:49:18.324Z,100342.11
2018-12-19T20:51:49.559Z,100336.27
2018-12-19T20:54:23.005Z,100337.73
2018-12-19T20:56:54.674Z,100340.55
2018-12-19T20:59:25.784Z,100331.86
2018-12-19T21:01:59.600Z,100340.41
2018-12-19T21:04:30.723Z,100337.70
2018-12-19T21:07:04.447Z,100340.70
2018-12-19T21:09:35.672Z,100347.45
2018-12-19T21:12:09.065Z,100342.58
2018-12-19T21:14:40.652Z,100342.27
2018-12-19T21:17:17.045Z,100338.97
2018-12-19T21:19:48.523Z,100338.47
2018-12-19T21:22:19.583Z,100338.23
2018-12-19T21:24:51.427Z,100348.38
2018-12-19T21:27:22.279Z,100334.30
2018-12-19T21:29:53.271Z,100334.45
2018-12-19T21:32:24.269Z,100338.80
2018-12-19T21:34:55.499Z,100333.84
2018-12-19T21:37:26.595Z,100330.62
2018-12-19T21:40:00.011Z,100333.95
2018-12-19T21:42:31.558Z,100327.57
2018-12-19T21:45:02.711Z,100319.55
2018-12-19T21:47:33.690Z,100321.77
2018-12-19T21:50:05.384Z,100329.13
2018-12-19T21:52:39.214Z,100329.69
2018-12-19T21:55:10.541Z,100321.53
2018-12-19T21:57:41.606Z,100311.67
2018-12-19T22:00:21.106Z,100312.52
2018-12-19T22:02:50.618Z,100309.28
2018-12-19T22:05:21.711Z,100309.22
2018-12-19T22:07:52.758Z,100307.06
2018-12-19T22:10:23.768Z,100299.19
2018-12-19T22:12:54.767Z,100305.60
2018-12-19T22:15:26.298Z,100305.71
2018-12-19T22:18:03.030Z,100310.84
2018-12-19T22:20:34.317Z,100309.04
2018-12-19T22:23:05.470Z,100306.41
2018-12-19T22:25:37.561Z,100307.66
2018-12-19T22:28:11.400Z,100307.86
2018-12-19T22:30:42.669Z,100308.48
2018-12-19T22:33:14.380Z,100311.13
2018-12-19T22:35:47.981Z,100311.05
2018-12-19T22:38:19.671Z,100308.41
2018-12-19T22:40:51.146Z,100308.94
2018-12-19T22:43:24.799Z,100313.78
2018-12-19T22:45:58.848Z,100312.67
2018-12-19T22:48:32.557Z,100307.48
2018-12-19T22:51:03.887Z,100305.48
2018-12-19T22:53:35.025Z,100308.50
2018-12-19T22:56:05.945Z,100312.91
2018-12-19T22:58:36.898Z,100313.11
2018-12-19T23:01:14.512Z,100307.64
2018-12-19T23:03:51.103Z,100306.55
2018-12-19T23:06:22.030Z,100309.82
2018-12-19T23:08:53.003Z,100309.06
2018-12-19T23:11:26.875Z,100304.63
2018-12-19T23:14:00.553Z,100308.76
2018-12-19T23:16:32.179Z,100308.55
2018-12-19T23:19:03.805Z,100305.66
2018-12-19T23:21:35.067Z,100301.38
2018-12-19T23:24:06.094Z,100304.17
2018-12-19T23:26:37.323Z,100306.52
2018-12-19T23:29:08.227Z,100306.80
2018-12-19T23:31:39.306Z,100307.23
2018-12-19T23:34:11.031Z,100296.48
2018-12-19T23:36:41.846Z,100296.01
2018-12-19T23:39:13.016Z,100301.00
2018-12-19T23:41:46.387Z,100299.58
2018-12-19T23:44:22.632Z,100299.98
2018-12-19T23:46:55.180Z,100296.23
2018-12-19T23:49:26.119Z,100297.60
2018-12-19T23:51:59.502Z,100291.13
2018-12-19T23:54:30.379Z,100297.58
2018-12-19T23:57:01.341Z,100298.55
2018-12-19T23:59:33.187Z,100298.84
